Time;durP1;ratioP1;P1;durP2;ratioP2;P2;SDS_P1;SDS_P2;PMS_P1;PMS_P2;Temp;Humidity;BMP_temperature;BMP_pressure;BME280_temperature;BME280_humidity;BME280_pressure;Samples;Min_cycle;Max_cycle;Signal;HPM_P1;HPM_P2
2022/03/10 00:04:31;;;;;;;32.03;16.00;;;;;;;1.04;55.69;101159.16;18499778;32;20112;-65
2022/03/10 00:14:34;;;;;;;41.20;18.63;;;;;;;0.97;56.52;101165.69;18499321;32;20120;-65
2022/03/10 00:24:39;;;;;;;46.08;21.00;;;;;;;1.26;55.18;101179.09;18499533;32;20096;-65
2022/03/10 00:34:42;;;;;;;47.77;19.70;;;;;;;0.60;59.13;101200.72;18499374;32;20353;-65
2022/03/10 00:44:47;;;;;;;36.88;18.20;;;;;;;0.89;59.22;101214.16;18498259;32;20111;-65
2022/03/10 00:54:50;;;;;;;38.75;19.35;;;;;;;1.34;59.36;101228.34;18498694;32;20111;-65
2022/03/10 01:04:54;;;;;;;35.88;16.92;;;;;;;1.32;60.26;101235.09;18498461;32;20365;-65
2022/03/10 01:14:58;;;;;;;32.08;16.17;;;;;;;1.61;59.56;101244.22;18499230;32;20096;-65
2022/03/10 01:25:02;;;;;;;40.72;18.67;;;;;;;2.05;58.87;101264.31;18496779;32;20126;-65
2022/03/10 01:35:07;;;;;;;35.30;15.95;;;;;;;2.34;58.65;101265.62;18497788;32;20104;-65
2022/03/10 01:45:12;;;;;;;43.50;18.58;;;;;;;2.70;57.50;101279.22;18497110;32;20180;-66
2022/03/10 01:55:15;;;;;;;39.50;18.95;;;;;;;2.57;58.16;101283.84;18497210;32;20092;-65
2022/03/10 02:05:20;;;;;;;38.72;17.75;;;;;;;2.57;59.21;101286.41;18496843;32;20115;-65
2022/03/10 02:25:51;;;;;;;34.53;15.90;;;;;;;2.90;58.87;101304.19;18496945;32;20130;-66
2022/03/10 02:35:54;;;;;;;31.20;16.17;;;;;;;2.96;60.25;101313.00;18495002;32;20100;-66
2022/03/10 02:45:58;;;;;;;32.33;15.15;;;;;;;2.90;59.22;101329.97;18492192;32;76291;-66
2022/03/10 02:56:02;;;;;;;29.48;14.52;;;;;;;3.11;59.07;101331.72;18494450;32;20073;-66
2022/03/10 03:06:07;;;;;;;29.55;14.73;;;;;;;3.23;59.42;101344.28;18493753;32;20112;-66
2022/03/10 03:16:10;;;;;;;30.70;15.60;;;;;;;3.51;58.84;101357.47;18493290;32;20096;-66
2022/03/10 03:26:15;;;;;;;28.58;14.38;;;;;;;3.72;59.76;101366.13;18492846;32;20088;-66
2022/03/10 03:36:18;;;;;;;31.75;15.00;;;;;;;3.82;59.74;101377.72;18492152;32;20107;-66
2022/03/10 03:46:23;;;;;;;36.00;14.35;;;;;;;3.77;60.37;101396.41;18491325;32;20420;-66
2022/03/10 03:56:26;;;;;;;27.87;13.73;;;;;;;3.73;60.78;101410.91;18499592;32;20088;-66
2022/03/10 04:06:31;;;;;;;28.12;14.52;;;;;;;3.99;60.44;101430.09;18500013;32;20097;-66
2022/03/10 04:16:34;;;;;;;20.98;10.18;;;;;;;4.15;60.72;101459.12;18499569;32;20166;-66
2022/03/10 04:26:40;;;;;;;14.48;6.25;;;;;;;4.27;56.13;101469.09;18499536;32;20141;-66
2022/03/10 04:36:44;;;;;;;13.75;6.20;;;;;;;4.46;52.94;101481.09;18499444;32;20088;-66
2022/03/10 04:46:49;;;;;;;14.43;6.10;;;;;;;4.74;50.62;101504.56;18498680;32;20089;-67
2022/03/10 04:56:52;;;;;;;15.18;6.15;;;;;;;3.78;52.13;101515.31;18498669;32;20097;-67
2022/03/10 05:06:57;;;;;;;12.57;5.72;;;;;;;3.37;53.20;101530.72;18498305;32;20097;-66
2022/03/10 05:17:00;;;;;;;11.38;5.10;;;;;;;3.49;51.21;101532.06;18498193;32;20089;-66
2022/03/10 05:27:05;;;;;;;11.52;4.70;;;;;;;3.39;49.00;101548.87;18498102;32;20155;-66
2022/03/10 05:37:08;;;;;;;10.77;4.87;;;;;;;3.85;46.94;101573.28;18497698;32;20115;-66
2022/03/10 05:47:13;;;;;;;11.82;4.90;;;;;;;4.52;45.30;101584.75;18497278;32;20114;-66
2022/03/10 05:57:19;;;;;;;11.63;5.05;;;;;;;4.64;44.69;101584.38;18494485;32;20111;-66
2022/03/10 06:07:24;;;;;;;14.87;6.20;;;;;;;4.99;44.17;101603.06;18494951;32;20089;-67
2022/03/10 06:17:29;;;;;;;12.20;5.25;;;;;;;5.29;45.09;101630.06;18494855;32;20101;-66
2022/03/10 06:27:34;;;;;;;13.75;5.97;;;;;;;4.82;46.25;101623.03;18496104;32;20111;-66
2022/03/10 06:37:39;;;;;;;17.42;6.82;;;;;;;5.05;45.28;101641.25;18495309;32;20356;-66
2022/03/10 06:47:44;;;;;;;11.65;5.40;;;;;;;5.58;43.94;101657.94;18494645;32;20089;-66
2022/03/10 06:57:48;;;;;;;11.23;5.05;;;;;;;4.94;44.37;101668.38;18495578;32;20101;-66
2022/03/10 07:07:55;;;;;;;8.90;4.12;;;;;;;4.34;43.38;101677.03;18488340;32;20163;-67
2022/03/10 07:18:01;;;;;;;10.43;4.32;;;;;;;4.47;41.92;101684.53;18492298;32;20089;-67
2022/03/10 07:28:06;;;;;;;10.15;4.62;;;;;;;3.87;42.60;101705.97;18497756;32;20123;-66
2022/03/10 07:38:10;;;;;;;9.93;3.90;;;;;;;4.48;42.16;101701.81;18498336;32;20176;-68
2022/03/10 07:48:15;;;;;;;11.30;4.45;;;;;;;4.55;40.94;101703.88;18499068;32;20110;-67
2022/03/10 07:58:18;;;;;;;11.18;4.53;;;;;;;5.91;37.78;101705.00;18498265;32;20418;-67
2022/03/10 08:08:23;;;;;;;10.38;4.80;;;;;;;5.62;37.02;101698.69;18497389;32;20473;-67
2022/03/10 08:18:28;;;;;;;12.32;4.68;;;;;;;6.78;35.22;101699.47;18495728;32;20795;-67
2022/03/10 08:28:33;;;;;;;10.75;4.53;;;;;;;6.48;35.50;101701.06;18497966;32;20129;-67
2022/03/10 08:38:37;;;;;;;10.63;4.40;;;;;;;6.48;34.93;101710.53;18496937;32;20101;-67
2022/03/10 08:48:44;;;;;;;8.98;3.80;;;;;;;6.58;34.90;101691.00;18509080;32;20155;-68
2022/03/10 08:58:47;;;;;;;9.93;4.18;;;;;;;6.62;33.61;101695.44;18504068;32;20100;-67
2022/03/10 09:08:51;;;;;;;10.98;4.00;;;;;;;6.30;31.26;101706.44;18523059;32;20147;-68
2022/03/10 09:18:55;;;;;;;10.25;4.18;;;;;;;6.84;30.36;101710.06;18515751;32;20084;-67
2022/03/10 09:28:59;;;;;;;9.23;4.25;;;;;;;7.33;30.02;101705.63;18502126;32;20101;-69
2022/03/10 09:39:03;;;;;;;10.05;3.87;;;;;;;6.99;30.58;101717.47;18498190;32;20093;-69
2022/03/10 09:49:07;;;;;;;9.55;3.78;;;;;;;11.27;22.14;101714.16;18495139;32;20131;-70
2022/03/10 09:59:13;;;;;;;10.45;4.35;;;;;;;14.65;19.39;101708.47;18493556;32;20500;-70
2022/03/10 10:09:21;;;;;;;10.82;3.90;;;;;;;12.94;20.55;101714.53;18497212;32;20128;-71
2022/03/10 10:19:27;;;;;;;9.85;3.70;;;;;;;10.21;21.93;101714.84;18495963;32;20107;-70
2022/03/10 10:29:32;;;;;;;7.57;3.75;;;;;;;8.19;25.23;101721.19;18495507;32;20084;-67
2022/03/10 10:39:51;;;;;;;9.43;3.78;;;;;;;10.96;21.78;101715.41;18494959;32;20092;-69
2022/03/10 10:50:01;;;;;;;11.80;4.60;;;;;;;13.43;20.14;101714.91;18492028;32;20107;-70
2022/03/10 11:00:12;;;;;;;9.80;4.18;;;;;;;13.32;20.44;101713.97;18492603;32;20088;-68
2022/03/10 11:10:17;;;;;;;11.73;3.95;;;;;;;12.86;19.61;101704.84;18492365;32;20109;-67
2022/03/10 11:20:21;;;;;;;8.93;3.58;;;;;;;15.00;18.49;101698.91;18491195;32;20107;-69
2022/03/10 11:30:27;;;;;;;8.95;3.72;;;;;;;11.73;20.38;101712.25;18490493;32;20126;-67
2022/03/10 11:40:41;;;;;;;8.75;3.53;;;;;;;11.90;20.63;101701.13;18487385;32;20144;-67
2022/03/10 11:50:46;;;;;;;6.72;2.87;;;;;;;11.47;20.97;101701.41;18486845;32;20123;-67
2022/03/10 12:00:52;;;;;;;7.47;2.80;;;;;;;11.18;20.11;101691.37;18487272;32;20093;-67
2022/03/10 12:11:04;;;;;;;7.27;2.40;;;;;;;8.82;20.75;101684.72;18492374;32;20089;-67
2022/03/10 12:21:17;;;;;;;6.15;2.62;;;;;;;9.88;19.39;101679.38;18499323;32;20520;-66
2022/03/10 12:31:24;;;;;;;6.07;2.67;;;;;;;10.56;18.69;101675.53;18497093;32;20093;-66
2022/03/10 12:41:33;;;;;;;4.85;2.22;;;;;;;10.30;18.32;101662.81;18496047;32;20089;-67
2022/03/10 12:51:38;;;;;;;9.50;3.10;;;;;;;8.35;19.51;101669.59;18496485;32;20100;-66
2022/03/10 13:01:42;;;;;;;13.70;3.08;;;;;;;9.57;18.49;101679.59;18492519;32;20102;-67
2022/03/10 13:11:47;;;;;;;5.85;2.45;;;;;;;9.62;17.87;101679.69;18495008;32;20645;-66
2022/03/10 13:21:52;;;;;;;22.42;5.12;;;;;;;10.52;17.14;101671.97;18495384;32;20085;-68
2022/03/10 13:31:59;;;;;;;6.20;2.70;;;;;;;10.06;16.81;101671.94;18494967;32;20168;-69
2022/03/10 13:42:02;;;;;;;7.93;2.50;;;;;;;8.85;18.35;101685.69;18349085;32;20090;-66
2022/03/10 13:52:11;;;;;;;7.22;2.78;;;;;;;9.38;17.22;101683.47;18325406;32;20119;-67
2022/03/10 14:02:19;;;;;;;5.70;2.45;;;;;;;9.57;16.42;101684.81;18333552;32;20091;-67
2022/03/10 14:12:26;;;;;;;4.78;2.62;;;;;;;9.47;17.17;101678.47;18329904;32;20113;-67
2022/03/10 14:22:29;;;;;;;6.53;2.42;;;;;;;8.58;17.17;101675.44;18333107;32;20187;-67
2022/03/10 14:32:41;;;;;;;4.20;2.03;;;;;;;8.68;16.86;101684.37;18331991;32;20164;-67
2022/03/10 14:42:45;;;;;;;10.55;3.10;;;;;;;8.37;17.57;101689.62;18301276;32;20454;-68
2022/03/10 14:52:50;;;;;;;7.10;3.10;;;;;;;7.57;20.34;101698.56;18302626;32;20074;-66
2022/03/10 15:02:53;;;;;;;7.90;3.10;;;;;;;7.32;21.75;101698.66;18301993;32;20113;-66
2022/03/10 15:12:58;;;;;;;7.85;3.35;;;;;;;6.88;22.86;101691.19;18301856;32;20098;-67
2022/03/10 15:23:04;;;;;;;8.35;3.30;;;;;;;6.55;23.54;101707.34;18299462;32;20109;-67
2022/03/10 15:33:09;;;;;;;9.93;4.50;;;;;;;6.12;24.05;101737.78;18296383;32;20090;-67
2022/03/10 15:43:13;;;;;;;9.38;4.20;;;;;;;5.74;25.50;101740.66;18297408;32;20105;-67
2022/03/10 15:53:22;;;;;;;8.52;3.90;;;;;;;5.38;26.16;101772.87;18307383;32;20098;-66
2022/03/10 16:03:25;;;;;;;8.27;3.92;;;;;;;5.38;25.89;101791.00;18307541;32;20121;-66
2022/03/10 16:13:30;;;;;;;9.40;3.80;;;;;;;5.32;26.22;101785.59;18308053;32;20099;-67
2022/03/10 16:23:34;;;;;;;7.93;3.30;;;;;;;4.88;26.63;101797.50;18307686;32;20343;-66
2022/03/10 16:33:39;;;;;;;10.50;3.75;;;;;;;5.04;27.05;101809.41;18306962;32;20116;-66
2022/03/10 16:43:42;;;;;;;10.68;3.92;;;;;;;5.20;26.92;101823.87;18300878;32;20159;-65
2022/03/10 16:53:49;;;;;;;8.00;3.72;;;;;;;5.03;27.49;101825.75;18301522;32;20110;-65
2022/03/10 17:03:52;;;;;;;8.48;3.72;;;;;;;3.97;29.63;101847.69;18305243;32;20081;-66
2022/03/10 17:13:58;;;;;;;11.75;4.95;;;;;;;3.57;30.43;101866.41;18306142;32;20120;-66
2022/03/10 17:24:01;;;;;;;9.13;4.12;;;;;;;3.65;30.64;101875.44;18303319;32;20441;-66
2022/03/10 17:34:06;;;;;;;10.55;5.47;;;;;;;2.78;31.21;101923.44;18304326;32;20560;-65
2022/03/10 17:44:10;;;;;;;12.85;4.87;;;;;;;3.50;30.23;101928.87;18305080;32;20093;-65
2022/03/10 17:54:15;;;;;;;10.73;4.82;;;;;;;2.73;31.58;101960.13;18290719;32;20141;-66
2022/03/10 18:04:18;;;;;;;9.05;4.15;;;;;;;2.10;32.09;101962.63;18304819;32;20129;-65
2022/03/10 18:14:22;;;;;;;10.30;4.68;;;;;;;1.87;32.71;101980.19;18300023;32;20122;-65
2022/03/10 18:24:26;;;;;;;9.48;4.60;;;;;;;2.02;32.67;101993.97;18298352;32;20090;-65
2022/03/10 18:34:34;;;;;;;11.63;5.40;;;;;;;1.83;33.12;102010.03;18302782;32;20116;-65
2022/03/10 18:44:38;;;;;;;12.52;5.37;;;;;;;1.79;33.47;102032.12;18294939;32;20417;-65
2022/03/10 18:54:43;;;;;;;13.25;4.90;;;;;;;1.60;33.80;102047.25;18298936;32;20110;-65
2022/03/10 19:04:46;;;;;;;14.90;5.75;;;;;;;1.67;33.73;102059.72;18282869;32;20110;-65
2022/03/10 19:14:51;;;;;;;15.40;6.70;;;;;;;0.88;35.21;102073.72;18289226;32;20085;-64
2022/03/10 19:24:54;;;;;;;13.53;6.10;;;;;;;1.07;35.09;102087.75;18260321;32;20137;-65
2022/03/10 19:34:58;;;;;;;15.25;6.80;;;;;;;1.26;35.12;102099.22;18309967;32;20098;-65
2022/03/10 19:45:02;;;;;;;13.45;6.28;;;;;;;1.52;34.97;102103.44;18308519;32;20148;-65
2022/03/10 19:55:12;;;;;;;9.35;4.75;;;;;;;1.23;35.36;102121.41;18302903;32;20110;-65
2022/03/10 20:05:15;;;;;;;10.87;4.73;;;;;;;0.65;36.19;102131.34;18308364;32;20089;-65
2022/03/10 20:15:20;;;;;;;27.98;8.80;;;;;;;1.34;34.95;102131.47;18304084;32;20533;-65
2022/03/10 20:25:24;;;;;;;17.93;9.33;;;;;;;1.41;35.91;102136.19;18291867;32;20104;-65
2022/03/10 20:35:29;;;;;;;17.30;8.33;;;;;;;1.29;35.81;102135.44;18291710;32;20137;-65
2022/03/10 20:45:32;;;;;;;16.02;8.60;;;;;;;1.21;36.24;102143.53;18293825;32;20100;-64
2022/03/10 20:55:37;;;;;;;11.80;5.77;;;;;;;1.31;36.04;102150.19;18259625;32;20102;-65
2022/03/10 21:05:40;;;;;;;13.57;6.47;;;;;;;0.74;37.07;102167.03;18278365;32;20089;-65
2022/03/10 21:15:44;;;;;;;45.50;18.23;;;;;;;0.52;38.58;102171.66;18278767;32;20490;-64
2022/03/10 21:25:48;;;;;;;17.90;8.73;;;;;;;0.09;39.27;102179.84;18291520;32;20101;-65
2022/03/10 21:35:53;;;;;;;24.80;11.80;;;;;;;0.17;40.42;102188.12;18295625;32;20121;-64
2022/03/10 21:45:56;;;;;;;21.40;9.27;;;;;;;-0.11;41.36;102203.25;18301215;32;20171;-64
2022/03/10 21:56:00;;;;;;;18.03;7.53;;;;;;;-0.45;41.34;102188.91;18294179;32;20125;-65
2022/03/10 22:06:06;;;;;;;12.30;5.60;;;;;;;-0.10;40.97;102207.59;18301766;32;20106;-65
2022/03/10 22:16:11;;;;;;;11.93;5.43;;;;;;;0.19;39.52;102208.75;18304256;32;20422;-64
2022/03/10 22:26:14;;;;;;;12.50;4.93;;;;;;;0.18;39.17;102219.81;18298089;32;20093;-64
2022/03/10 22:36:19;;;;;;;14.00;6.37;;;;;;;-0.21;40.11;102218.00;18304209;32;20454;-65
2022/03/10 22:46:22;;;;;;;11.13;4.90;;;;;;;-0.05;40.22;102222.56;18303323;32;20445;-64
2022/03/10 22:56:27;;;;;;;24.43;7.50;;;;;;;-0.04;39.62;102226.03;18302601;32;20094;-64
2022/03/10 23:16:53;;;;;;;12.00;4.93;;;;;;;-0.04;39.18;102226.94;18302015;32;20449;-64
2022/03/10 23:26:56;;;;;;;13.40;5.83;;;;;;;0.19;38.68;102216.47;18301319;32;20102;-64
2022/03/10 23:37:01;;;;;;;11.50;5.50;;;;;;;-0.24;38.82;102216.87;18300756;32;20348;-64
2022/03/10 23:47:05;;;;;;;11.53;5.50;;;;;;;-0.01;39.01;102213.37;18299575;32;20097;-64
2022/03/10 23:57:09;;;;;;;12.17;5.17;;;;;;;-0.09;39.34;102228.25;18299069;32;20116;-65
